Time;durP1;ratioP1;P1;durP2;ratioP2;P2;SDS_P1;SDS_P2;PMS_P1;PMS_P2;Temp;Humidity;BMP_temperature;BMP_pressure;BME280_temperature;BME280_humidity;BME280_pressure;Samples;Min_cycle;Max_cycle;Signal;HPM_P1;HPM_P2
2021/11/27 00:00:38;;;;;;;6.40;3.50;;;3.70;77.60;;;;;;5045774;28;20419;-75
2021/11/27 00:03:04;;;;;;;7.22;4.80;;;3.80;77.60;;;;;;5041657;28;20963;-76
2021/11/27 00:05:34;;;;;;;7.17;3.93;;;3.80;77.60;;;;;;5048487;28;20211;-76
2021/11/27 00:08:00;;;;;;;13.30;4.67;;;3.80;77.60;;;;;;5039371;28;20440;-75
2021/11/27 00:10:28;;;;;;;9.20;4.47;;;3.80;77.60;;;;;;5046879;28;20480;-75
2021/11/27 00:12:54;;;;;;;6.63;3.97;;;3.80;77.40;;;;;;5042770;28;20514;-74
2021/11/27 00:15:22;;;;;;;6.67;4.33;;;3.80;77.60;;;;;;5051034;28;20461;-74
2021/11/27 00:17:48;;;;;;;6.73;3.90;;;3.70;77.70;;;;;;5038081;28;20243;-74
2021/11/27 00:20:18;;;;;;;7.23;3.80;;;3.80;77.60;;;;;;5036363;28;20416;-73
2021/11/27 00:22:44;;;;;;;6.97;4.37;;;3.70;77.70;;;;;;5049531;28;20435;-73
2021/11/27 00:25:12;;;;;;;8.90;4.00;;;3.70;78.00;;;;;;5047250;28;20468;-74
2021/11/27 00:27:38;;;;;;;7.30;4.27;;;3.70;78.10;;;;;;5043295;28;20423;-74
2021/11/27 00:30:07;;;;;;;7.60;4.03;;;3.70;78.00;;;;;;5040054;28;20438;-74
2021/11/27 00:32:32;;;;;;;8.27;4.13;;;3.70;78.30;;;;;;5044662;28;20806;-75
2021/11/27 00:34:58;;;;;;;7.87;3.63;;;3.70;78.40;;;;;;5049394;28;20419;-74
2021/11/27 00:37:24;;;;;;;7.70;4.50;;;3.70;78.40;;;;;;5044290;28;20673;-74
2021/11/27 00:39:50;;;;;;;8.77;4.50;;;3.70;78.70;;;;;;5039501;28;20651;-74
2021/11/27 00:42:15;;;;;;;8.17;3.80;;;3.70;78.40;;;;;;5030813;28;20615;-73
2021/11/27 00:44:41;;;;;;;12.30;4.27;;;3.70;78.60;;;;;;5041438;28;20206;-75
2021/11/27 00:47:07;;;;;;;6.67;4.13;;;3.70;78.60;;;;;;5046834;28;20201;-74
2021/11/27 00:49:33;;;;;;;9.53;4.50;;;3.70;78.60;;;;;;5045240;28;20267;-74
2021/11/27 00:51:59;;;;;;;9.88;4.60;;;3.70;78.70;;;;;;5049581;28;20777;-74
2021/11/27 00:54:26;;;;;;;6.23;3.77;;;3.70;78.90;;;;;;5049566;28;20184;-73
2021/11/27 00:56:52;;;;;;;8.40;3.90;;;3.60;79.00;;;;;;5040970;28;20600;-74
2021/11/27 00:59:18;;;;;;;7.83;4.50;;;3.60;79.20;;;;;;5049567;28;20427;-73
2021/11/27 01:01:45;;;;;;;9.40;4.60;;;3.60;79.70;;;;;;5049375;28;20177;-74
2021/11/27 01:04:11;;;;;;;12.03;4.87;;;3.60;79.70;;;;;;5049496;28;20498;-75
2021/11/27 01:06:37;;;;;;;10.13;4.90;;;3.60;79.70;;;;;;5047213;28;20470;-74
2021/11/27 01:09:07;;;;;;;8.33;5.17;;;3.60;79.90;;;;;;5045657;28;20415;-74
2021/11/27 01:11:53;;;;;;;7.67;4.87;;;3.60;80.00;;;;;;5042344;28;20492;-74
2021/11/27 01:14:26;;;;;;;8.30;4.70;;;3.60;80.00;;;;;;5047955;28;20423;-73
2021/11/27 01:16:55;;;;;;;7.13;3.57;;;3.60;80.20;;;;;;5048775;28;20211;-73
2021/11/27 01:19:23;;;;;;;5.78;3.85;;;3.70;80.20;;;;;;5041689;28;20458;-74
2021/11/27 01:21:54;;;;;;;6.57;4.10;;;3.70;80.00;;;;;;5033241;28;20276;-75
2021/11/27 01:24:20;;;;;;;8.40;4.30;;;3.80;80.20;;;;;;5041739;28;20931;-73
2021/11/27 01:26:46;;;;;;;7.37;4.23;;;3.80;80.00;;;;;;5042596;28;20489;-73
2021/11/27 01:29:12;;;;;;;8.00;4.50;;;3.80;80.00;;;;;;5036689;28;20420;-74
2021/11/27 01:31:39;;;;;;;8.67;4.97;;;3.80;80.00;;;;;;5042504;28;20422;-75
2021/11/27 01:34:07;;;;;;;9.57;4.50;;;3.70;80.00;;;;;;5044133;28;20420;-75
2021/11/27 01:36:33;;;;;;;8.30;4.60;;;3.70;80.20;;;;;;5037789;28;20502;-74
2021/11/27 01:38:59;;;;;;;8.20;4.53;;;3.70;80.20;;;;;;5043995;28;20426;-74
2021/11/27 01:41:25;;;;;;;10.30;5.50;;;3.70;80.20;;;;;;5043035;28;20515;-75
2021/11/27 01:43:51;;;;;;;10.83;4.50;;;3.70;80.00;;;;;;5045380;28;20503;-74
2021/11/27 01:46:17;;;;;;;8.03;4.30;;;3.80;79.90;;;;;;5034894;28;20431;-74
2021/11/27 01:48:44;;;;;;;8.67;5.10;;;3.70;79.70;;;;;;5036786;28;20427;-74
2021/11/27 01:51:14;;;;;;;7.17;4.67;;;3.80;79.90;;;;;;5045980;28;20556;-74
2021/11/27 01:53:44;;;;;;;8.30;4.60;;;3.70;80.00;;;;;;5039549;28;20424;-74
2021/11/27 01:56:15;;;;;;;8.70;5.17;;;3.70;80.30;;;;;;5042562;28;20510;-75
2021/11/27 01:58:42;;;;;;;9.23;4.97;;;3.80;80.30;;;;;;5040367;28;20740;-75
2021/11/27 02:01:13;;;;;;;9.63;5.05;;;3.70;80.30;;;;;;5039110;28;20594;-75
2021/11/27 02:03:40;;;;;;;7.80;4.38;;;3.70;80.80;;;;;;5042359;28;20181;-75
2021/11/27 02:06:08;;;;;;;11.40;5.23;;;3.70;81.10;;;;;;5039182;28;20239;-74
2021/11/27 02:08:34;;;;;;;7.82;4.50;;;3.70;81.40;;;;;;5039577;28;20469;-75
2021/11/27 02:11:00;;;;;;;10.00;5.23;;;3.60;81.80;;;;;;5048020;28;20234;-75
2021/11/27 02:13:26;;;;;;;9.50;4.45;;;3.60;82.10;;;;;;5047854;28;20454;-73
2021/11/27 02:15:52;;;;;;;12.73;4.00;;;3.70;82.20;;;;;;5042000;28;20862;-75
2021/11/27 02:18:17;;;;;;;9.70;4.83;;;3.70;82.40;;;;;;5047957;28;20286;-76
2021/11/27 02:20:55;;;;;;;8.47;4.67;;;3.70;82.80;;;;;;5042582;28;20188;-74
2021/11/27 02:23:21;;;;;;;8.90;4.30;;;3.70;83.10;;;;;;5040528;28;20173;-75
2021/11/27 02:25:47;;;;;;;10.13;4.47;;;3.70;83.10;;;;;;5047255;28;20873;-74
2021/11/27 02:28:12;;;;;;;8.53;4.60;;;3.70;83.40;;;;;;5040235;28;20522;-74
2021/11/27 02:30:40;;;;;;;7.10;4.87;;;3.70;83.40;;;;;;5045407;28;20194;-75
2021/11/27 02:33:07;;;;;;;10.40;5.13;;;3.70;83.60;;;;;;5048384;28;20173;-74
2021/11/27 02:35:32;;;;;;;6.10;4.20;;;3.70;83.70;;;;;;5048685;28;20509;-73
2021/11/27 02:37:59;;;;;;;8.27;4.20;;;3.70;83.80;;;;;;5041479;28;20570;-74
2021/11/27 02:40:25;;;;;;;7.80;4.27;;;3.70;83.80;;;;;;5048890;28;20177;-74
2021/11/27 02:42:51;;;;;;;6.13;3.70;;;3.70;83.80;;;;;;5038953;28;20470;-74
2021/11/27 02:45:18;;;;;;;9.60;4.67;;;3.70;83.60;;;;;;5043339;28;20423;-73
2021/11/27 02:47:43;;;;;;;7.87;4.07;;;3.70;83.30;;;;;;5039132;28;20786;-75
2021/11/27 02:50:13;;;;;;;8.63;4.90;;;3.70;83.60;;;;;;5040028;28;20415;-74
2021/11/27 02:52:40;;;;;;;11.77;5.10;;;3.70;83.40;;;;;;5046675;28;20211;-73
2021/11/27 02:55:07;;;;;;;10.73;5.07;;;3.60;83.30;;;;;;5033191;28;20424;-74
2021/11/27 02:57:33;;;;;;;6.67;4.40;;;3.60;83.40;;;;;;5044366;28;20467;-75
2021/11/27 03:00:01;;;;;;;8.90;4.83;;;3.60;83.40;;;;;;5045133;28;20419;-75
2021/11/27 03:02:27;;;;;;;8.77;4.40;;;3.70;83.10;;;;;;5046502;28;20415;-74
2021/11/27 03:04:53;;;;;;;6.43;3.73;;;3.70;83.10;;;;;;5041504;28;20415;-74
2021/11/27 03:07:19;;;;;;;6.43;3.80;;;3.60;83.30;;;;;;5035939;28;20460;-74
2021/11/27 03:09:45;;;;;;;10.53;4.70;;;3.70;83.40;;;;;;5033986;28;20427;-74
2021/11/27 03:12:12;;;;;;;6.03;4.10;;;3.70;83.40;;;;;;5037134;28;20504;-73
2021/11/27 03:14:38;;;;;;;9.10;4.40;;;3.70;83.00;;;;;;5037809;28;20430;-74
2021/11/27 03:17:04;;;;;;;7.10;3.90;;;3.70;83.40;;;;;;5045209;28;20467;-73
2021/11/27 03:19:33;;;;;;;8.20;4.10;;;3.90;82.80;;;;;;5042601;28;20427;-74
2021/11/27 03:22:00;;;;;;;7.73;4.30;;;3.80;82.80;;;;;;5042679;28;20420;-73
2021/11/27 03:24:26;;;;;;;8.23;4.60;;;3.70;83.10;;;;;;5053976;28;20444;-74
2021/11/27 03:26:52;;;;;;;4.93;3.93;;;3.70;83.60;;;;;;5056074;28;20449;-75
2021/11/27 03:29:18;;;;;;;7.33;4.20;;;3.80;83.80;;;;;;5055144;28;20432;-75
2021/11/27 03:31:44;;;;;;;7.07;4.37;;;3.80;83.70;;;;;;5034481;28;20421;-74
2021/11/27 03:34:10;;;;;;;8.23;3.90;;;3.70;83.80;;;;;;5049317;28;20435;-75
2021/11/27 03:36:35;;;;;;;7.23;3.97;;;3.80;83.70;;;;;;5039882;28;20212;-74
2021/11/27 03:39:04;;;;;;;7.63;4.60;;;3.90;83.00;;;;;;5043483;28;20181;-74
2021/11/27 03:41:30;;;;;;;12.27;5.20;;;3.90;83.10;;;;;;5045132;28;20228;-74
2021/11/27 03:43:56;;;;;;;7.97;3.97;;;3.90;84.00;;;;;;5037045;28;20422;-73
2021/11/27 03:46:21;;;;;;;11.07;5.10;;;3.90;85.00;;;;;;5047260;28;20193;-75
2021/11/27 03:48:47;;;;;;;6.23;3.67;;;3.80;85.90;;;;;;5049614;28;20263;-74
2021/11/27 03:51:17;;;;;;;8.57;4.27;;;3.80;86.80;;;;;;5048172;28;20683;-73
2021/11/27 03:53:45;;;;;;;8.60;4.03;;;3.70;87.30;;;;;;5048439;28;20188;-75
2021/11/27 03:56:13;;;;;;;10.60;4.37;;;3.60;88.00;;;;;;5046506;28;20910;-75
2021/11/27 03:58:39;;;;;;;7.97;3.90;;;3.50;88.40;;;;;;5039873;28;20590;-75
2021/11/27 04:01:08;;;;;;;7.53;4.60;;;3.50;88.90;;;;;;5048397;28;21177;-74
2021/11/27 04:03:34;;;;;;;9.30;4.50;;;3.50;88.90;;;;;;5038690;28;20519;-73
2021/11/27 04:06:01;;;;;;;8.23;4.10;;;3.40;88.90;;;;;;5041708;28;20462;-74
2021/11/27 04:08:27;;;;;;;7.37;3.50;;;3.40;89.00;;;;;;5037145;28;20808;-74
2021/11/27 04:10:53;;;;;;;10.20;4.00;;;3.50;89.30;;;;;;5041931;28;20667;-75
2021/11/27 04:13:20;;;;;;;9.07;3.87;;;3.50;89.30;;;;;;5033325;28;20534;-74
2021/11/27 04:15:46;;;;;;;4.10;3.00;;;3.50;89.30;;;;;;5036661;28;20565;-75
2021/11/27 04:18:13;;;;;;;7.27;3.40;;;3.50;89.20;;;;;;5043992;28;20613;-74
2021/11/27 04:20:39;;;;;;;9.60;3.77;;;3.50;89.30;;;;;;5039690;28;20431;-73
2021/11/27 04:23:06;;;;;;;10.33;3.93;;;3.50;89.00;;;;;;5053754;28;20412;-73
2021/11/27 04:25:31;;;;;;;6.53;2.77;;;3.50;89.20;;;;;;5038626;28;20570;-74
2021/11/27 04:27:57;;;;;;;5.83;2.53;;;3.60;89.20;;;;;;5043811;28;20965;-73
2021/11/27 04:30:25;;;;;;;4.37;3.07;;;3.60;89.50;;;;;;5045213;28;20654;-73
2021/11/27 04:32:51;;;;;;;2.60;2.28;;;3.50;89.70;;;;;;5038213;28;20200;-73
2021/11/27 04:35:18;;;;;;;6.70;3.20;;;3.50;89.90;;;;;;5036172;28;20219;-74
2021/11/27 04:37:44;;;;;;;3.77;2.23;;;3.60;90.00;;;;;;5040175;28;20508;-74
2021/11/27 04:40:15;;;;;;;3.33;2.37;;;3.60;89.90;;;;;;5037660;28;20984;-73
2021/11/27 04:42:41;;;;;;;2.77;2.23;;;3.60;90.00;;;;;;5053186;28;20411;-73
2021/11/27 04:45:07;;;;;;;6.00;2.57;;;3.60;90.00;;;;;;5049619;28;20422;-72
2021/11/27 04:47:34;;;;;;;5.13;2.05;;;3.60;89.90;;;;;;5053557;28;20493;-73
2021/11/27 04:50:00;;;;;;;5.40;2.17;;;3.60;89.70;;;;;;5052362;28;20211;-75
2021/11/27 04:52:26;;;;;;;3.57;2.13;;;3.70;89.60;;;;;;5036287;28;20189;-74
2021/11/27 04:54:52;;;;;;;2.93;1.63;;;3.70;89.50;;;;;;5048425;28;20458;-75
2021/11/27 04:57:18;;;;;;;3.50;1.97;;;3.70;89.30;;;;;;5041130;28;20487;-74
2021/11/27 04:59:46;;;;;;;2.97;1.77;;;3.80;89.30;;;;;;5044223;28;20423;-73
2021/11/27 05:02:12;;;;;;;4.10;1.80;;;3.80;89.30;;;;;;5038552;28;20560;-74
2021/11/27 05:04:38;;;;;;;2.30;1.57;;;3.80;89.20;;;;;;5035306;28;20444;-74
2021/11/27 05:07:05;;;;;;;2.90;1.60;;;3.80;88.90;;;;;;5048045;28;20960;-74
2021/11/27 05:09:31;;;;;;;2.43;1.70;;;3.80;88.90;;;;;;5049072;28;20438;-74
2021/11/27 05:11:56;;;;;;;3.30;2.20;;;3.90;88.60;;;;;;5041943;28;20513;-72
2021/11/27 05:14:22;;;;;;;2.43;1.87;;;3.80;88.90;;;;;;5049505;28;20224;-74
2021/11/27 05:16:48;;;;;;;4.37;1.87;;;3.90;88.70;;;;;;5049531;28;20332;-74
2021/11/27 05:19:14;;;;;;;3.30;1.50;;;3.90;88.70;;;;;;5050854;28;20183;-75
2021/11/27 05:21:39;;;;;;;1.87;1.57;;;3.90;88.40;;;;;;5050595;28;20426;-74
2021/11/27 05:24:06;;;;;;;5.30;1.67;;;3.90;88.70;;;;;;5037620;28;20439;-75
2021/11/27 05:26:32;;;;;;;3.90;1.73;;;3.80;88.90;;;;;;5039358;28;20686;-75
2021/11/27 05:28:58;;;;;;;2.07;1.70;;;3.80;89.30;;;;;;5046724;28;20438;-76
2021/11/27 05:31:24;;;;;;;1.90;1.43;;;3.70;89.50;;;;;;5045562;28;20498;-75
2021/11/27 05:36:29;;;;;;;1.90;1.50;;;3.80;89.30;;;;;;5040595;28;20454;-75
2021/11/27 05:38:55;;;;;;;4.25;1.73;;;3.80;89.60;;;;;;5042628;28;20423;-76
2021/11/27 05:41:21;;;;;;;2.63;1.60;;;3.80;89.60;;;;;;5037180;28;20187;-74
2021/11/27 05:43:47;;;;;;;1.60;1.30;;;3.90;89.90;;;;;;5034554;28;20194;-74
2021/11/27 05:46:12;;;;;;;2.00;1.43;;;3.90;89.50;;;;;;5041186;28;20442;-76
2021/11/27 05:48:38;;;;;;;2.30;1.50;;;3.80;89.90;;;;;;5047174;28;20256;-73
2021/11/27 05:51:04;;;;;;;2.40;1.53;;;3.80;90.10;;;;;;5043293;28;20289;-75
2021/11/27 05:53:30;;;;;;;2.60;1.50;;;3.80;90.10;;;;;;5036430;28;20185;-74
2021/11/27 05:55:56;;;;;;;2.70;1.50;;;3.80;90.20;;;;;;5035932;28;20452;-74
2021/11/27 05:58:22;;;;;;;2.30;1.60;;;3.70;90.30;;;;;;5044265;28;20212;-74
2021/11/27 06:00:49;;;;;;;2.13;1.70;;;3.80;90.60;;;;;;5039378;28;20560;-74
2021/11/27 06:03:15;;;;;;;3.93;2.20;;;3.80;90.60;;;;;;5049634;28;20419;-74
2021/11/27 06:05:41;;;;;;;5.13;2.30;;;3.80;90.60;;;;;;5049808;28;20474;-73
2021/11/27 06:08:07;;;;;;;5.33;1.53;;;3.80;90.70;;;;;;5035239;28;20492;-73
2021/11/27 06:10:34;;;;;;;5.00;2.00;;;3.70;90.70;;;;;;5040787;28;20424;-74
2021/11/27 06:13:00;;;;;;;3.40;2.28;;;3.70;90.90;;;;;;5049814;28;20422;-73
2021/11/27 06:15:26;;;;;;;2.37;1.77;;;3.70;91.10;;;;;;5048570;28;20200;-73
2021/11/27 06:17:53;;;;;;;2.23;1.70;;;3.70;91.00;;;;;;5048502;28;20955;-74
2021/11/27 06:20:19;;;;;;;2.60;1.87;;;3.70;91.00;;;;;;5048689;28;20819;-74
2021/11/27 06:22:46;;;;;;;2.60;1.83;;;3.70;91.00;;;;;;5045819;28;20423;-75
2021/11/27 06:25:12;;;;;;;3.00;2.10;;;3.70;91.10;;;;;;5039348;28;20577;-73
2021/11/27 06:27:38;;;;;;;3.93;2.27;;;3.70;91.20;;;;;;5049381;28;20446;-75
2021/11/27 06:30:05;;;;;;;3.97;2.83;;;3.70;91.20;;;;;;5045878;28;20939;-73
2021/11/27 06:32:32;;;;;;;2.50;1.93;;;3.70;91.30;;;;;;5055307;28;20983;-75
2021/11/27 06:34:58;;;;;;;3.20;1.90;;;3.70;91.30;;;;;;5044284;28;20447;-75
2021/11/27 06:37:24;;;;;;;2.70;2.57;;;3.70;91.30;;;;;;5053171;28;20490;-73
2021/11/27 06:39:50;;;;;;;3.30;1.80;;;3.70;91.50;;;;;;5053841;28;20443;-74
2021/11/27 06:42:17;;;;;;;2.90;2.00;;;3.70;91.50;;;;;;5054649;28;20177;-73
2021/11/27 06:44:47;;;;;;;3.60;2.20;;;3.70;91.60;;;;;;5053305;28;20419;-75
2021/11/27 06:47:14;;;;;;;3.20;1.70;;;3.70;91.50;;;;;;5047836;28;20443;-74
2021/11/27 06:49:40;;;;;;;3.50;1.93;;;3.70;91.50;;;;;;5049426;28;20427;-74
2021/11/27 06:52:06;;;;;;;4.30;2.40;;;3.70;91.70;;;;;;5045953;28;20909;-74
2021/11/27 06:54:32;;;;;;;2.23;1.60;;;3.70;91.60;;;;;;5053325;28;20656;-73
2021/11/27 06:56:57;;;;;;;2.90;1.97;;;3.70;91.50;;;;;;5048526;28;20469;-74
2021/11/27 06:59:23;;;;;;;2.60;1.50;;;3.80;91.50;;;;;;5041165;28;20187;-74
2021/11/27 07:01:49;;;;;;;2.40;2.00;;;3.70;91.50;;;;;;5036534;28;20712;-74
2021/11/27 07:04:17;;;;;;;3.43;2.00;;;3.70;91.60;;;;;;5039339;28;20185;-74
2021/11/27 07:06:43;;;;;;;3.10;1.90;;;3.70;91.70;;;;;;5051295;28;20221;-74
2021/11/27 07:09:09;;;;;;;5.00;1.90;;;3.70;91.80;;;;;;5041629;28;20186;-75
2021/11/27 07:11:35;;;;;;;3.10;2.00;;;3.80;91.70;;;;;;5048323;28;20449;-76
2021/11/27 07:14:01;;;;;;;3.83;1.80;;;3.80;91.70;;;;;;5052391;28;20209;-74
2021/11/27 07:16:27;;;;;;;3.70;1.67;;;3.80;91.60;;;;;;5045982;28;20211;-74
2021/11/27 07:18:53;;;;;;;2.93;2.20;;;3.80;91.60;;;;;;5051024;28;20416;-74
2021/11/27 07:21:18;;;;;;;3.67;2.07;;;3.80;91.60;;;;;;5047171;28;20188;-74
2021/11/27 07:23:44;;;;;;;2.97;1.93;;;3.80;91.70;;;;;;5044995;28;20196;-75
2021/11/27 07:26:10;;;;;;;2.03;1.80;;;3.80;91.70;;;;;;5040609;28;20209;-74
2021/11/27 07:28:35;;;;;;;3.20;2.00;;;3.80;91.60;;;;;;5047167;28;20208;-75
2021/11/27 07:31:02;;;;;;;2.40;2.10;;;3.80;91.70;;;;;;5047645;28;20193;-75
2021/11/27 07:33:28;;;;;;;2.93;1.93;;;3.90;91.50;;;;;;5041061;28;20200;-74
2021/11/27 07:35:53;;;;;;;4.73;2.77;;;3.80;91.40;;;;;;5049006;28;20447;-75
2021/11/27 07:38:19;;;;;;;3.30;2.07;;;3.80;91.60;;;;;;5050157;28;20824;-75
2021/11/27 07:40:45;;;;;;;3.80;2.00;;;3.80;91.60;;;;;;5047547;28;20477;-75
2021/11/27 07:43:11;;;;;;;3.50;2.33;;;3.80;91.50;;;;;;5042727;28;20187;-76
2021/11/27 07:45:36;;;;;;;2.83;2.07;;;3.90;91.60;;;;;;5050303;28;20211;-75
2021/11/27 07:48:03;;;;;;;4.87;1.93;;;3.90;91.50;;;;;;5048112;28;20211;-74
2021/11/27 07:50:29;;;;;;;3.13;2.00;;;3.90;91.50;;;;;;5051315;28;20193;-76
2021/11/27 07:52:55;;;;;;;3.23;2.17;;;3.90;91.30;;;;;;5044344;28;20424;-76
2021/11/27 07:55:21;;;;;;;3.10;2.10;;;3.90;91.40;;;;;;5047639;28;20836;-77
2021/11/27 07:57:47;;;;;;;4.27;1.73;;;3.90;91.50;;;;;;5049803;28;20870;-75
2021/11/27 08:00:13;;;;;;;2.60;2.00;;;3.90;91.60;;;;;;5046098;28;20518;-76
2021/11/27 08:02:39;;;;;;;2.77;1.73;;;3.90;91.80;;;;;;5046080;28;20896;-76
2021/11/27 08:05:06;;;;;;;3.40;2.20;;;3.90;91.80;;;;;;5045000;28;20431;-74
2021/11/27 08:07:32;;;;;;;3.03;1.90;;;3.90;91.80;;;;;;5048712;28;20226;-73
2021/11/27 08:09:58;;;;;;;3.70;2.10;;;3.90;92.00;;;;;;5049145;28;20431;-76
2021/11/27 08:12:24;;;;;;;3.33;2.23;;;3.90;91.80;;;;;;5050842;28;20457;-75
2021/11/27 08:14:50;;;;;;;2.80;2.40;;;3.90;91.80;;;;;;5041826;28;20894;-75
2021/11/27 08:17:16;;;;;;;3.20;2.30;;;3.90;91.90;;;;;;5051782;28;20474;-76
2021/11/27 08:19:42;;;;;;;3.60;1.90;;;3.90;91.90;;;;;;5047165;28;20502;-75
2021/11/27 08:22:08;;;;;;;3.40;2.27;;;4.00;91.90;;;;;;5045546;28;20419;-74
2021/11/27 08:24:34;;;;;;;2.27;1.70;;;4.00;91.80;;;;;;5039099;28;20450;-76
2021/11/27 08:26:59;;;;;;;3.10;2.30;;;4.10;91.60;;;;;;5041525;28;20504;-75
2021/11/27 08:29:25;;;;;;;2.97;2.10;;;4.10;91.50;;;;;;5052261;28;20184;-75
2021/11/27 08:31:51;;;;;;;3.20;2.83;;;4.20;91.30;;;;;;5044292;28;20226;-76
2021/11/27 08:34:17;;;;;;;4.60;2.40;;;4.30;90.90;;;;;;5046812;28;20235;-76
2021/11/27 08:36:43;;;;;;;3.87;2.50;;;4.40;90.50;;;;;;5043999;28;20209;-76
2021/11/27 08:39:09;;;;;;;2.97;2.00;;;4.40;90.50;;;;;;5046948;28;20215;-74
2021/11/27 08:41:35;;;;;;;3.63;2.00;;;4.40;90.40;;;;;;5044215;28;20428;-76
2021/11/27 08:44:01;;;;;;;3.17;1.83;;;4.50;90.40;;;;;;5046811;28;20411;-75
2021/11/27 08:46:27;;;;;;;2.67;2.07;;;4.50;90.00;;;;;;5047156;28;20439;-74
2021/11/27 08:48:52;;;;;;;4.27;1.90;;;4.60;89.70;;;;;;5041221;28;20184;-73
2021/11/27 08:51:18;;;;;;;2.73;1.50;;;4.70;89.60;;;;;;5036704;28;20455;-73
2021/11/27 08:53:44;;;;;;;3.27;1.97;;;4.80;89.00;;;;;;5033533;28;20210;-74
2021/11/27 08:56:11;;;;;;;3.70;1.63;;;4.90;88.40;;;;;;5043043;28;20741;-75
2021/11/27 08:58:38;;;;;;;2.50;1.80;;;5.00;87.80;;;;;;5045631;28;20466;-74
2021/11/27 09:01:06;;;;;;;1.93;1.67;;;5.10;87.40;;;;;;5045879;28;20982;-73
2021/11/27 09:03:32;;;;;;;3.30;1.40;;;5.20;87.30;;;;;;5050303;28;20419;-74
2021/11/27 09:06:00;;;;;;;3.40;2.03;;;5.30;86.60;;;;;;5045406;28;20447;-74
2021/11/27 09:08:27;;;;;;;1.80;1.57;;;5.40;86.00;;;;;;5038937;28;20438;-75
2021/11/27 09:10:53;;;;;;;2.90;1.90;;;5.40;85.60;;;;;;5043229;28;20415;-74
2021/11/27 09:13:19;;;;;;;3.40;1.90;;;5.40;85.30;;;;;;5046004;28;20778;-73
2021/11/27 09:15:45;;;;;;;6.60;2.40;;;5.50;85.50;;;;;;5044009;28;20462;-74
2021/11/27 09:18:11;;;;;;;2.63;1.63;;;5.50;85.00;;;;;;5047740;28;20747;-75
2021/11/27 09:20:38;;;;;;;2.83;1.60;;;5.50;84.90;;;;;;5047745;28;20192;-75
2021/11/27 09:23:05;;;;;;;2.80;1.60;;;5.50;84.30;;;;;;5046451;28;20870;-74
2021/11/27 09:25:31;;;;;;;2.40;1.40;;;5.60;84.00;;;;;;5045854;28;20475;-74
2021/11/27 09:27:57;;;;;;;3.03;1.67;;;5.50;84.10;;;;;;5052691;28;20423;-76
2021/11/27 09:30:26;;;;;;;3.23;1.53;;;5.60;84.00;;;;;;5040785;28;20420;-75
2021/11/27 09:32:52;;;;;;;2.80;1.60;;;5.70;83.70;;;;;;5047454;28;20427;-75
2021/11/27 09:35:17;;;;;;;1.70;1.60;;;5.80;82.80;;;;;;5053474;28;20480;-75
2021/11/27 09:37:43;;;;;;;5.50;1.60;;;5.80;82.50;;;;;;5048793;28;20662;-75
2021/11/27 09:40:10;;;;;;;5.60;2.00;;;5.90;82.70;;;;;;5045874;28;20293;-76
2021/11/27 09:42:37;;;;;;;5.20;2.23;;;6.00;82.50;;;;;;5043326;28;20278;-76
2021/11/27 09:45:05;;;;;;;2.83;1.53;;;6.10;82.10;;;;;;5048020;28;20439;-75
2021/11/27 09:47:32;;;;;;;3.10;1.43;;;6.10;82.10;;;;;;5051402;28;20453;-75
2021/11/27 09:50:00;;;;;;;3.97;1.90;;;5.90;83.30;;;;;;5045899;28;20933;-75
2021/11/27 09:52:26;;;;;;;3.87;1.50;;;5.80;84.70;;;;;;5038399;28;20477;-75
2021/11/27 09:54:52;;;;;;;4.30;1.60;;;5.70;86.00;;;;;;5047222;28;20423;-75
2021/11/27 09:57:18;;;;;;;2.90;1.37;;;5.70;86.60;;;;;;5031821;28;20471;-75
2021/11/27 09:59:46;;;;;;;4.43;1.67;;;5.60;87.10;;;;;;5041887;28;20419;-75
2021/11/27 10:02:14;;;;;;;2.80;1.50;;;5.50;88.00;;;;;;5052395;28;20553;-76
2021/11/27 10:04:48;;;;;;;5.83;1.60;;;5.40;88.00;;;;;;5052229;28;20423;-73
2021/11/27 10:07:17;;;;;;;1.30;1.20;;;5.40;87.60;;;;;;5049844;28;20481;-75
2021/11/27 10:09:46;;;;;;;3.57;1.60;;;5.40;87.70;;;;;;5040166;28;20434;-75
2021/11/27 10:12:12;;;;;;;2.30;1.40;;;5.50;87.80;;;;;;5054269;28;20466;-75
2021/11/27 10:14:40;;;;;;;1.80;1.50;;;5.70;87.80;;;;;;5056660;28;20442;-76
2021/11/27 10:17:07;;;;;;;2.63;1.60;;;5.80;87.10;;;;;;5049716;28;20469;-76
2021/11/27 10:19:42;;;;;;;2.37;1.40;;;6.00;87.10;;;;;;5056151;28;20411;-75
2021/11/27 10:22:13;;;;;;;4.77;1.93;;;6.30;86.30;;;;;;5050355;28;21135;-76
2021/11/27 10:24:41;;;;;;;2.33;1.40;;;6.50;85.00;;;;;;5051195;28;20526;-74
2021/11/27 10:27:37;;;;;;;3.77;1.50;;;6.70;84.00;;;;;;5055773;28;20446;-76
2021/11/27 10:30:09;;;;;;;1.57;1.27;;;6.80;81.80;;;;;;4993730;28;20800;-75
2021/11/27 10:32:40;;;;;;;5.40;2.10;;;6.80;82.10;;;;;;4993393;28;20428;-75
2021/11/27 10:35:19;;;;;;;5.13;1.83;;;6.90;81.20;;;;;;4994281;28;20413;-74
2021/11/27 10:37:47;;;;;;;2.40;1.50;;;7.00;80.80;;;;;;4996242;28;20471;-76
2021/11/27 10:40:21;;;;;;;3.30;1.60;;;7.10;80.00;;;;;;4995025;28;20433;-75
2021/11/27 10:42:53;;;;;;;3.90;2.17;;;7.00;79.70;;;;;;4995210;28;20428;-76
2021/11/27 10:45:20;;;;;;;7.10;3.23;;;6.70;79.50;;;;;;4980783;28;20413;-75
2021/11/27 10:47:47;;;;;;;6.07;2.40;;;6.50;80.30;;;;;;4998386;28;20433;-78
2021/11/27 10:50:19;;;;;;;3.30;2.00;;;6.40;80.60;;;;;;4995858;28;20862;-78
2021/11/27 10:52:49;;;;;;;3.23;1.40;;;6.30;79.30;;;;;;4994435;28;20457;-79
2021/11/27 10:55:24;;;;;;;2.60;1.50;;;6.10;79.60;;;;;;4995958;28;20425;-78
2021/11/27 10:57:54;;;;;;;6.83;1.73;;;6.10;79.70;;;;;;4997085;28;20464;-80
2021/11/27 11:00:26;;;;;;;5.27;1.90;;;6.20;79.60;;;;;;4996463;28;20434;-77
2021/11/27 11:02:53;;;;;;;2.40;1.50;;;6.20;79.00;;;;;;4978831;28;20537;-77
2021/11/27 11:05:20;;;;;;;1.90;1.47;;;6.20;79.30;;;;;;4996410;28;20438;-78
2021/11/27 11:08:05;;;;;;;3.17;1.80;;;6.10;79.00;;;;;;5044991;28;20507;-78
2021/11/27 11:10:34;;;;;;;2.20;1.70;;;6.00;79.70;;;;;;5043553;28;20418;-78
2021/11/27 11:13:11;;;;;;;4.50;1.70;;;6.10;79.50;;;;;;5038491;28;20423;-79
2021/11/27 11:15:45;;;;;;;5.03;1.80;;;6.10;79.30;;;;;;5055282;28;20458;-77
2021/11/27 11:18:24;;;;;;;4.33;1.77;;;6.10;78.60;;;;;;5043344;28;20563;-78
2021/11/27 11:20:55;;;;;;;4.47;2.13;;;6.10;78.90;;;;;;5046538;28;20428;-79
2021/11/27 11:23:25;;;;;;;4.50;2.03;;;6.20;78.90;;;;;;5055477;28;20430;-80
2021/11/27 11:26:21;;;;;;;3.87;1.60;;;6.10;78.90;;;;;;5046069;28;20498;-77
2021/11/27 11:28:51;;;;;;;2.00;1.43;;;6.00;78.70;;;;;;4975184;28;20435;-79
2021/11/27 11:31:22;;;;;;;2.93;1.70;;;6.10;79.20;;;;;;4976621;28;20430;-77
2021/11/27 11:33:51;;;;;;;7.00;1.60;;;6.10;79.20;;;;;;4978326;28;20426;-78
2021/11/27 11:36:20;;;;;;;2.63;1.70;;;6.10;79.00;;;;;;4962731;28;20474;-77
2021/11/27 11:38:48;;;;;;;4.50;2.00;;;6.10;79.20;;;;;;4970898;28;20518;-79
2021/11/27 11:41:17;;;;;;;5.40;2.10;;;6.10;79.30;;;;;;4968867;28;20454;-78
2021/11/27 11:43:43;;;;;;;2.50;1.80;;;6.20;79.60;;;;;;4964060;28;20433;-77
2021/11/27 11:46:10;;;;;;;2.03;1.60;;;6.20;79.60;;;;;;4978714;28;20924;-79
2021/11/27 11:48:39;;;;;;;1.43;1.30;;;6.10;79.50;;;;;;4979769;28;20426;-77
2021/11/27 11:51:28;;;;;;;3.57;1.70;;;6.10;80.20;;;;;;4961054;28;20562;-81
2021/11/27 11:53:56;;;;;;;2.00;1.57;;;6.00;80.90;;;;;;4974373;28;20434;-79
2021/11/27 11:56:34;;;;;;;3.93;2.00;;;6.10;81.10;;;;;;4980458;28;20549;-77
2021/11/27 11:59:27;;;;;;;3.37;2.33;;;6.10;81.10;;;;;;4957492;28;20525;-75
2021/11/27 12:02:17;;;;;;;4.73;2.70;;;6.20;80.80;;;;;;4972979;28;20517;-74
2021/11/27 12:04:58;;;;;;;5.40;1.83;;;6.20;80.50;;;;;;4999624;28;20446;-75
2021/11/27 12:07:44;;;;;;;4.77;2.43;;;6.10;80.50;;;;;;5053544;28;20500;-75
2021/11/27 12:10:19;;;;;;;3.47;1.93;;;6.10;81.40;;;;;;5048136;28;20430;-77
2021/11/27 12:13:09;;;;;;;2.80;2.03;;;6.20;81.70;;;;;;5053988;28;20834;-75
2021/11/27 12:15:39;;;;;;;4.43;2.37;;;6.20;81.10;;;;;;5054434;28;20435;-75
2021/11/27 12:18:18;;;;;;;4.53;1.80;;;6.20;81.20;;;;;;5047031;28;20473;-75
2021/11/27 12:20:55;;;;;;;4.50;2.40;;;6.20;81.50;;;;;;5046878;28;20449;-74
2021/11/27 12:26:08;;;;;;;2.43;1.73;;;6.20;81.40;;;;;;5045450;28;20938;-74
2021/11/27 12:28:42;;;;;;;3.47;1.77;;;6.10;80.30;;;;;;5044667;28;20476;-75
2021/11/27 12:31:12;;;;;;;11.20;2.07;;;6.10;81.40;;;;;;5041746;28;20428;-75
2021/11/27 12:33:48;;;;;;;2.33;1.80;;;6.10;81.80;;;;;;5058980;28;20473;-76
2021/11/27 12:36:26;;;;;;;6.83;2.10;;;6.10;81.70;;;;;;5061927;28;20514;-74
2021/11/27 12:39:09;;;;;;;2.90;1.97;;;6.00;82.50;;;;;;5066062;28;20490;-75
2021/11/27 12:41:39;;;;;;;4.07;2.23;;;6.00;82.70;;;;;;5063997;28;20419;-75
2021/11/27 12:44:42;;;;;;;3.00;1.93;;;6.00;82.50;;;;;;5051837;28;20415;-74
2021/11/27 12:47:14;;;;;;;2.73;1.80;;;6.10;81.90;;;;;;5006615;28;20534;-76
2021/11/27 12:49:40;;;;;;;3.00;1.90;;;6.30;81.40;;;;;;5000473;28;20529;-75
2021/11/27 12:54:48;;;;;;;3.17;2.10;;;6.60;79.20;;;;;;5006069;28;20996;-76
2021/11/27 12:57:26;;;;;;;4.03;1.93;;;6.50;78.90;;;;;;5008356;28;20469;-76
2021/11/27 13:00:07;;;;;;;2.50;1.70;;;6.30;79.50;;;;;;5002731;28;20408;-76
2021/11/27 13:02:33;;;;;;;2.40;1.37;;;6.20;80.20;;;;;;5007702;28;20413;-74
2021/11/27 13:05:00;;;;;;;3.50;1.70;;;6.10;79.50;;;;;;5005515;28;20589;-75
2021/11/27 13:07:27;;;;;;;2.77;1.87;;;6.10;79.50;;;;;;5009348;28;20461;-75